Time;durP1;ratioP1;P1;durP2;ratioP2;P2;SDS_P1;SDS_P2;PMS_P1;PMS_P2;Temp;Humidity;BMP_temperature;BMP_pressure;BME280_temperature;BME280_humidity;BME280_pressure;Samples;Min_cycle;Max_cycle;Signal;HPM_P1;HPM_P2
2021/10/29 00:00:25;;;;;;;9.68;8.45;;;6.20;99.90;;;;;;5018139;28;20672;-64
2021/10/29 00:02:52;;;;;;;7.93;7.13;;;6.10;99.90;;;;;;5035812;28;20270;-64
2021/10/29 00:05:18;;;;;;;9.32;7.05;;;6.10;99.90;;;;;;5035129;28;20829;-64
2021/10/29 00:07:44;;;;;;;8.40;7.50;;;6.00;99.90;;;;;;5035078;28;20273;-65
2021/10/29 00:10:10;;;;;;;7.97;7.20;;;6.00;99.90;;;;;;5035737;28;20750;-64
2021/10/29 00:12:36;;;;;;;7.95;6.05;;;5.90;99.90;;;;;;5035470;28;20654;-64
2021/10/29 00:15:03;;;;;;;11.32;6.50;;;5.90;99.90;;;;;;5034201;28;20538;-64
2021/10/29 00:17:29;;;;;;;7.82;6.70;;;5.80;99.90;;;;;;5035412;28;20552;-64
2021/10/29 00:19:54;;;;;;;7.67;5.87;;;5.80;99.90;;;;;;5035645;28;20245;-64
2021/10/29 00:22:20;;;;;;;10.77;6.60;;;5.70;99.90;;;;;;5035528;28;20173;-64
2021/10/29 00:24:46;;;;;;;12.37;6.40;;;5.70;99.90;;;;;;5035152;28;20644;-64
2021/10/29 00:27:12;;;;;;;8.90;6.90;;;5.60;99.90;;;;;;5034811;28;20458;-63
2021/10/29 00:29:38;;;;;;;8.77;4.85;;;5.60;99.90;;;;;;5035236;28;20195;-63
2021/10/29 00:32:04;;;;;;;7.87;6.50;;;5.60;99.90;;;;;;5035277;28;20565;-63
2021/10/29 00:34:29;;;;;;;7.90;6.97;;;5.50;99.90;;;;;;5035405;28;20170;-64
2021/10/29 00:36:55;;;;;;;8.73;6.03;;;5.50;99.90;;;;;;5034945;28;20405;-64
2021/10/29 00:39:21;;;;;;;12.47;7.57;;;5.50;99.90;;;;;;5034990;28;20788;-64
2021/10/29 00:41:47;;;;;;;9.00;6.20;;;5.50;99.90;;;;;;5034919;28;20175;-64
2021/10/29 00:44:20;;;;;;;7.47;5.80;;;5.50;99.90;;;;;;5035178;28;20182;-64
2021/10/29 00:46:45;;;;;;;9.73;6.13;;;5.50;99.90;;;;;;5034608;28;20169;-63
2021/10/29 00:49:11;;;;;;;9.13;6.93;;;5.50;99.90;;;;;;5034919;28;20198;-64
2021/10/29 00:51:37;;;;;;;12.07;6.70;;;5.40;99.90;;;;;;5034798;28;20611;-64
2021/10/29 00:54:03;;;;;;;8.63;4.60;;;5.40;99.90;;;;;;5034786;28;20615;-64
2021/10/29 00:56:29;;;;;;;9.77;7.15;;;5.30;99.90;;;;;;5034467;28;20832;-64
2021/10/29 00:58:55;;;;;;;9.33;6.10;;;5.40;99.90;;;;;;5034782;28;20194;-64
2021/10/29 01:01:21;;;;;;;7.72;6.40;;;5.30;99.90;;;;;;5034621;28;20404;-64
2021/10/29 01:03:46;;;;;;;8.60;6.90;;;5.30;99.90;;;;;;5034784;28;20170;-64
2021/10/29 01:06:13;;;;;;;8.23;6.20;;;5.30;99.90;;;;;;5034533;28;20170;-64
2021/10/29 01:08:40;;;;;;;7.75;6.38;;;5.30;99.90;;;;;;5034061;28;20332;-63
2021/10/29 01:11:10;;;;;;;9.13;6.25;;;5.20;99.90;;;;;;5034210;28;20201;-63
2021/10/29 01:13:36;;;;;;;9.07;5.40;;;5.20;99.90;;;;;;5034493;28;20647;-65
2021/10/29 01:16:02;;;;;;;13.70;7.77;;;5.20;99.90;;;;;;5034232;28;20191;-64
2021/10/29 01:18:27;;;;;;;11.50;6.97;;;5.20;99.90;;;;;;5032869;28;20197;-64
2021/10/29 01:20:53;;;;;;;7.63;5.90;;;5.20;99.90;;;;;;5034319;28;20198;-64
2021/10/29 01:23:19;;;;;;;9.60;6.23;;;5.20;99.90;;;;;;5034107;28;20175;-66
2021/10/29 01:25:44;;;;;;;6.77;5.30;;;5.20;99.90;;;;;;5034368;28;20212;-64
2021/10/29 01:28:11;;;;;;;11.43;5.60;;;5.20;99.90;;;;;;5033826;28;20209;-64
2021/10/29 01:30:37;;;;;;;8.18;5.47;;;5.20;99.90;;;;;;5034112;28;20206;-64
2021/10/29 01:33:03;;;;;;;13.57;6.45;;;5.20;99.90;;;;;;5034091;28;20277;-64
2021/10/29 01:35:29;;;;;;;7.30;6.13;;;5.10;99.90;;;;;;5034119;28;20730;-64
2021/10/29 01:37:55;;;;;;;10.73;7.87;;;5.10;99.90;;;;;;5033490;28;20421;-64
2021/10/29 01:40:21;;;;;;;9.50;5.90;;;5.10;99.90;;;;;;5032636;28;20416;-63
2021/10/29 01:42:47;;;;;;;8.90;5.40;;;5.10;99.90;;;;;;5033917;28;20224;-64
2021/10/29 01:45:14;;;;;;;12.70;6.55;;;5.10;99.90;;;;;;5033903;28;20178;-64
2021/10/29 01:47:40;;;;;;;7.18;5.40;;;5.00;99.90;;;;;;5033330;28;20223;-63
2021/10/29 01:50:08;;;;;;;6.43;5.70;;;5.00;99.90;;;;;;5033881;28;20530;-64
2021/10/29 01:52:34;;;;;;;8.75;6.60;;;5.00;99.90;;;;;;5033536;28;20527;-64
2021/10/29 01:55:00;;;;;;;11.50;7.88;;;5.00;99.90;;;;;;5033645;28;20232;-64
2021/10/29 01:57:26;;;;;;;12.57;6.30;;;5.00;99.90;;;;;;5033384;28;20198;-64
2021/10/29 01:59:51;;;;;;;9.53;6.87;;;5.00;99.90;;;;;;5033680;28;20421;-64
2021/10/29 02:02:17;;;;;;;6.40;5.60;;;5.00;99.90;;;;;;5033709;28;20899;-64
2021/10/29 02:04:44;;;;;;;11.20;6.93;;;5.00;99.90;;;;;;5032374;28;20178;-64
2021/10/29 02:07:10;;;;;;;6.90;5.57;;;5.00;99.90;;;;;;5032819;28;20177;-64
2021/10/29 02:09:35;;;;;;;11.43;6.78;;;5.00;99.90;;;;;;5033390;28;20169;-63
2021/10/29 02:12:01;;;;;;;16.60;7.77;;;5.00;99.90;;;;;;5033623;28;20201;-63
2021/10/29 02:14:27;;;;;;;12.93;6.93;;;5.00;99.90;;;;;;5033281;28;20583;-64
2021/10/29 02:16:52;;;;;;;10.20;6.90;;;5.00;99.90;;;;;;5032869;28;20217;-64
2021/10/29 02:19:18;;;;;;;7.63;5.00;;;5.00;99.90;;;;;;5033112;28;20280;-64
2021/10/29 02:21:44;;;;;;;7.70;5.30;;;4.90;99.90;;;;;;5033318;28;20392;-64
2021/10/29 02:24:10;;;;;;;9.57;5.80;;;4.90;99.90;;;;;;5033083;28;20463;-64
2021/10/29 02:26:36;;;;;;;12.23;6.80;;;4.90;99.90;;;;;;5032876;28;20343;-63
2021/10/29 02:29:03;;;;;;;8.20;6.20;;;4.90;99.90;;;;;;5032658;28;20452;-64
2021/10/29 02:31:29;;;;;;;9.85;5.70;;;4.90;99.90;;;;;;5033098;28;20190;-63
2021/10/29 02:33:55;;;;;;;7.57;5.57;;;4.80;99.90;;;;;;5032991;28;20182;-64
2021/10/29 02:36:22;;;;;;;7.47;6.32;;;4.80;99.90;;;;;;5033060;28;20527;-63
2021/10/29 02:38:48;;;;;;;7.50;6.07;;;4.80;99.90;;;;;;5032876;28;20193;-64
2021/10/29 02:41:14;;;;;;;10.53;5.97;;;4.80;99.90;;;;;;5033168;28;20185;-64
2021/10/29 02:43:42;;;;;;;11.68;6.50;;;4.80;99.90;;;;;;5031903;28;20174;-64
2021/10/29 02:46:07;;;;;;;9.93;6.22;;;4.80;99.90;;;;;;5032976;28;20288;-64
2021/10/29 02:48:33;;;;;;;10.57;6.80;;;4.80;99.90;;;;;;5032545;28;20222;-65
2021/10/29 02:50:59;;;;;;;12.13;6.50;;;4.70;99.90;;;;;;5032966;28;20170;-64
2021/10/29 02:53:25;;;;;;;12.30;5.73;;;4.70;99.90;;;;;;5032905;28;20173;-64
2021/10/29 02:55:50;;;;;;;9.43;6.83;;;4.60;99.90;;;;;;5032958;28;20171;-65
2021/10/29 02:58:16;;;;;;;9.60;5.80;;;4.60;99.90;;;;;;5032641;28;20429;-65
2021/10/29 03:00:42;;;;;;;9.40;6.10;;;4.60;99.90;;;;;;5032895;28;20170;-64
2021/10/29 03:03:07;;;;;;;10.37;7.83;;;4.60;99.90;;;;;;5032931;28;20166;-64
2021/10/29 03:05:37;;;;;;;8.10;7.30;;;4.60;99.90;;;;;;5032928;28;20547;-65
2021/10/29 03:08:03;;;;;;;7.90;5.63;;;4.60;99.90;;;;;;5032424;28;20511;-64
2021/10/29 03:10:29;;;;;;;14.02;6.78;;;4.60;99.90;;;;;;5032925;28;20266;-64
2021/10/29 03:12:55;;;;;;;11.37;5.53;;;4.60;99.90;;;;;;5032542;28;20284;-64
2021/10/29 03:15:20;;;;;;;10.33;5.37;;;4.60;99.90;;;;;;5032470;28;20190;-64
2021/10/29 03:17:46;;;;;;;8.50;6.90;;;4.60;99.90;;;;;;5032224;28;20220;-65
2021/10/29 03:20:12;;;;;;;13.87;5.73;;;4.60;99.90;;;;;;5031389;28;20209;-64
2021/10/29 03:22:39;;;;;;;9.37;6.27;;;4.50;99.90;;;;;;5032747;28;20412;-65
2021/10/29 03:25:06;;;;;;;12.80;8.77;;;4.50;99.90;;;;;;5032640;28;21047;-64
2021/10/29 03:27:33;;;;;;;5.75;4.57;;;4.50;99.90;;;;;;5032004;28;20674;-64
2021/10/29 03:29:59;;;;;;;11.45;7.78;;;4.50;99.90;;;;;;5032733;28;20539;-65
2021/10/29 03:32:25;;;;;;;12.73;7.17;;;4.40;99.90;;;;;;5032629;28;20194;-64
2021/10/29 03:34:51;;;;;;;11.03;6.30;;;4.40;99.90;;;;;;5032469;28;20176;-64
2021/10/29 03:42:52;;;;;;;13.43;7.97;;;4.20;99.90;;;;;;5036469;28;20200;-64
2021/10/29 03:45:19;;;;;;;8.73;5.45;;;4.20;99.90;;;;;;5036257;28;20193;-65
2021/10/29 03:47:53;;;;;;;12.43;7.75;;;4.20;99.90;;;;;;5035614;28;20190;-64
2021/10/29 03:50:24;;;;;;;9.27;6.30;;;4.10;99.90;;;;;;5036125;28;20181;-64
2021/10/29 03:53:25;;;;;;;11.63;5.60;;;4.10;99.90;;;;;;5036074;28;20193;-64
2021/10/29 03:55:40;;;;;;;6.07;4.60;;;4.10;99.90;;;;;;5035384;28;20618;-64
2021/10/29 03:58:07;;;;;;;13.52;7.07;;;4.00;99.90;;;;;;5035495;28;20194;-63
2021/10/29 04:00:33;;;;;;;6.75;6.03;;;4.10;99.90;;;;;;5035856;28;20200;-64
2021/10/29 04:03:02;;;;;;;15.07;7.70;;;4.00;99.90;;;;;;5035697;28;20664;-64
2021/10/29 04:05:30;;;;;;;11.20;7.85;;;4.00;99.90;;;;;;5035744;28;20186;-64
2021/10/29 04:07:56;;;;;;;12.18;7.93;;;4.10;99.90;;;;;;5035237;28;20192;-64
2021/10/29 04:10:28;;;;;;;7.72;6.00;;;4.10;99.90;;;;;;5035774;28;20174;-65
2021/10/29 04:12:56;;;;;;;7.93;7.13;;;4.10;99.90;;;;;;5035674;28;20201;-64
2021/10/29 04:15:23;;;;;;;10.63;6.18;;;4.10;99.90;;;;;;5034143;28;20213;-65
2021/10/29 04:17:49;;;;;;;13.63;7.75;;;4.10;99.90;;;;;;5035072;28;20232;-65
2021/10/29 04:20:15;;;;;;;8.23;6.15;;;4.10;99.90;;;;;;5035448;28;20174;-65
2021/10/29 04:22:41;;;;;;;6.40;5.80;;;4.00;99.90;;;;;;5035530;28;20253;-65
2021/10/29 04:25:07;;;;;;;9.20;6.70;;;4.10;99.90;;;;;;5035353;28;20300;-64
2021/10/29 04:27:36;;;;;;;12.80;7.47;;;4.10;99.90;;;;;;5035064;28;20927;-65
2021/10/29 04:30:10;;;;;;;11.00;8.60;;;4.00;99.90;;;;;;5035221;28;20182;-65
2021/10/29 04:32:36;;;;;;;7.25;5.80;;;4.00;99.90;;;;;;5035108;28;20555;-64
2021/10/29 04:35:01;;;;;;;9.53;6.33;;;4.00;99.90;;;;;;5035256;28;20182;-64
2021/10/29 04:37:27;;;;;;;8.63;4.53;;;4.00;99.90;;;;;;5034622;28;20212;-68
2021/10/29 04:39:54;;;;;;;11.23;5.67;;;3.90;99.90;;;;;;5035032;28;20198;-65
2021/10/29 04:42:20;;;;;;;12.10;7.32;;;3.90;99.90;;;;;;5035073;28;20170;-64
2021/10/29 04:44:46;;;;;;;12.65;6.53;;;3.90;99.90;;;;;;5035078;28;20197;-64
2021/10/29 04:47:12;;;;;;;9.37;5.73;;;3.90;99.90;;;;;;5034573;28;20174;-64
2021/10/29 04:49:37;;;;;;;8.53;6.00;;;3.80;99.90;;;;;;5034742;28;20595;-65
2021/10/29 04:52:03;;;;;;;8.43;6.30;;;3.80;99.90;;;;;;5034488;28;20209;-65
2021/10/29 04:54:29;;;;;;;8.20;5.38;;;3.80;99.90;;;;;;5034630;28;20255;-65
2021/10/29 04:56:55;;;;;;;15.53;6.87;;;3.80;99.90;;;;;;5034641;28;20201;-64
2021/10/29 04:59:20;;;;;;;10.53;6.53;;;3.80;99.90;;;;;;5034611;28;20213;-65
2021/10/29 05:01:46;;;;;;;10.87;6.67;;;3.70;99.90;;;;;;5034719;28;20239;-64
2021/10/29 05:04:16;;;;;;;5.97;5.03;;;3.80;99.90;;;;;;5033672;28;20177;-64
2021/10/29 05:06:42;;;;;;;11.27;6.15;;;3.70;99.90;;;;;;5033853;28;20189;-64
2021/10/29 05:09:08;;;;;;;7.05;5.10;;;3.70;99.90;;;;;;5033903;28;20232;-63
2021/10/29 05:11:34;;;;;;;8.63;6.97;;;3.70;99.90;;;;;;5034471;28;20226;-64
2021/10/29 05:14:00;;;;;;;11.43;6.60;;;3.80;99.90;;;;;;5034348;28;20397;-64
2021/10/29 05:16:26;;;;;;;8.80;5.87;;;3.70;99.90;;;;;;5033832;28;20196;-65
2021/10/29 05:18:52;;;;;;;8.47;7.20;;;3.70;99.90;;;;;;5034173;28;20412;-64
2021/10/29 05:21:17;;;;;;;8.87;7.23;;;3.70;99.90;;;;;;5034257;28;20178;-63
2021/10/29 05:23:43;;;;;;;9.57;6.63;;;3.70;99.90;;;;;;5034118;28;20178;-64
2021/10/29 05:26:08;;;;;;;7.03;4.87;;;3.70;99.90;;;;;;5034224;28;20166;-63
2021/10/29 05:28:34;;;;;;;10.50;7.10;;;3.60;99.90;;;;;;5031987;28;20190;-64
2021/10/29 05:31:01;;;;;;;10.77;6.30;;;3.70;99.90;;;;;;5031905;28;20185;-64
2021/10/29 05:33:27;;;;;;;9.15;6.50;;;3.60;99.90;;;;;;5033579;28;20197;-64
2021/10/29 05:35:53;;;;;;;7.07;4.60;;;3.70;99.90;;;;;;5034261;28;20224;-65
2021/10/29 05:38:19;;;;;;;7.72;5.03;;;3.70;99.90;;;;;;5032440;28;20607;-64
2021/10/29 05:40:44;;;;;;;7.63;6.83;;;3.70;99.90;;;;;;5033836;28;20229;-64
2021/10/29 05:43:10;;;;;;;8.57;6.47;;;3.70;99.90;;;;;;5034002;28;20413;-64
2021/10/29 05:45:36;;;;;;;14.93;8.57;;;3.70;99.90;;;;;;5033869;28;20174;-64
2021/10/29 05:48:05;;;;;;;9.47;5.90;;;3.70;99.90;;;;;;5033277;28;20669;-64
2021/10/29 05:50:31;;;;;;;11.32;7.15;;;3.70;99.90;;;;;;5033764;28;20516;-64
2021/10/29 05:52:58;;;;;;;11.90;6.97;;;3.70;99.90;;;;;;5033606;28;20585;-64
2021/10/29 05:55:24;;;;;;;10.70;8.98;;;3.70;99.90;;;;;;5033729;28;20257;-64
2021/10/29 05:57:51;;;;;;;8.53;5.63;;;3.70;99.90;;;;;;5033367;28;20268;-64
2021/10/29 06:00:19;;;;;;;12.57;7.53;;;3.80;99.90;;;;;;5033670;28;20166;-64
2021/10/29 06:02:45;;;;;;;10.90;8.32;;;3.80;99.90;;;;;;5033495;28;20186;-65
2021/10/29 06:05:11;;;;;;;14.43;8.05;;;3.80;99.90;;;;;;5033201;28;20538;-65
2021/10/29 06:07:38;;;;;;;13.30;6.78;;;3.90;99.90;;;;;;5032961;28;20642;-64
2021/10/29 06:10:06;;;;;;;14.20;7.13;;;3.80;99.90;;;;;;5033547;28;20558;-64
2021/10/29 06:12:34;;;;;;;10.45;8.63;;;3.80;99.90;;;;;;5033295;28;20299;-64
2021/10/29 06:14:59;;;;;;;10.07;7.25;;;3.80;99.90;;;;;;5030458;28;20596;-63
2021/10/29 06:17:27;;;;;;;7.40;6.70;;;3.80;99.90;;;;;;5031315;28;20190;-64
2021/10/29 06:19:53;;;;;;;10.38;7.10;;;3.90;99.90;;;;;;5031708;28;20772;-63
2021/10/29 06:24:45;;;;;;;10.60;8.20;;;3.90;99.90;;;;;;5031777;28;20170;-63
2021/10/29 06:29:57;;;;;;;6.32;5.70;;;4.10;99.90;;;;;;4990422;28;20201;-63
2021/10/29 06:32:23;;;;;;;8.93;7.97;;;4.10;99.90;;;;;;5050803;28;20601;-63
2021/10/29 06:34:50;;;;;;;14.98;8.32;;;4.30;99.90;;;;;;5052793;28;20573;-64
2021/10/29 06:37:16;;;;;;;10.73;8.32;;;4.40;99.90;;;;;;5052541;28;20165;-65
2021/10/29 06:39:46;;;;;;;16.27;10.73;;;4.60;99.90;;;;;;5052790;28;20178;-64
2021/10/29 06:42:16;;;;;;;13.30;8.20;;;4.70;99.90;;;;;;5052974;28;20584;-64
2021/10/29 07:00:41;;;;;;;11.13;9.13;;;5.70;99.90;;;;;;5023299;28;20202;-70
2021/10/29 07:41:25;;;;;;;7.63;6.80;;;11.00;99.90;;;;;;5037492;28;20403;-69
2021/10/29 07:43:59;;;;;;;6.53;5.97;;;11.90;99.90;;;;;;5039203;28;20415;-67
2021/10/29 07:46:25;;;;;;;5.50;4.67;;;12.70;99.90;;;;;;5020728;28;20825;-70
2021/10/29 07:48:51;;;;;;;5.70;5.00;;;13.30;99.90;;;;;;5040172;28;20429;-66
2021/10/29 07:51:17;;;;;;;4.80;4.27;;;13.90;99.90;;;;;;5040641;28;20398;-67
2021/10/29 07:53:44;;;;;;;5.33;4.83;;;14.40;99.90;;;;;;5036799;28;20181;-67
2021/10/29 07:56:10;;;;;;;5.47;4.80;;;14.90;99.90;;;;;;5036817;28;20181;-66
2021/10/29 07:58:36;;;;;;;5.40;4.90;;;15.20;99.90;;;;;;5036989;28;20945;-67
2021/10/29 08:01:03;;;;;;;5.90;5.37;;;15.60;99.90;;;;;;5027178;28;20388;-68
2021/10/29 08:03:29;;;;;;;5.93;5.33;;;16.00;99.90;;;;;;5029512;28;20269;-66
2021/10/29 08:05:55;;;;;;;18.43;5.30;;;15.90;99.90;;;;;;5035830;28;20425;-66
2021/10/29 08:08:21;;;;;;;4.73;4.33;;;16.30;99.20;;;;;;5035340;28;20404;-66
2021/10/29 08:10:49;;;;;;;4.43;4.03;;;16.70;98.10;;;;;;5036334;28;20384;-66
2021/10/29 08:13:15;;;;;;;5.17;4.70;;;17.00;96.30;;;;;;5035535;28;20233;-66
2021/10/29 08:15:41;;;;;;;5.30;4.90;;;17.30;96.30;;;;;;5017820;28;20412;-66
2021/10/29 08:18:08;;;;;;;5.33;4.83;;;17.30;94.30;;;;;;5034969;28;20496;-66
2021/10/29 08:20:35;;;;;;;5.23;4.70;;;17.20;95.10;;;;;;5035297;28;20407;-66
2021/10/29 08:23:02;;;;;;;4.73;4.23;;;17.70;95.20;;;;;;5035126;28;20394;-66
2021/10/29 08:25:29;;;;;;;4.70;4.30;;;18.10;93.20;;;;;;5035170;28;20394;-66
2021/10/29 08:27:55;;;;;;;4.67;4.20;;;18.40;92.20;;;;;;5034176;28;20445;-67
2021/10/29 08:30:23;;;;;;;6.80;4.60;;;18.40;91.20;;;;;;5034895;28;20386;-64
2021/10/29 08:32:50;;;;;;;4.63;4.17;;;18.20;91.50;;;;;;5034480;28;20821;-65
2021/10/29 08:35:18;;;;;;;5.47;4.93;;;18.40;91.60;;;;;;5034331;28;20376;-65
2021/10/29 08:37:45;;;;;;;5.33;4.83;;;18.70;91.50;;;;;;5032461;28;20403;-66
2021/10/29 08:40:11;;;;;;;5.43;4.83;;;19.00;90.60;;;;;;5035040;28;20788;-64
2021/10/29 08:42:38;;;;;;;5.03;4.53;;;19.20;90.00;;;;;;5034952;28;20816;-64
2021/10/29 08:45:06;;;;;;;4.40;3.92;;;19.20;89.60;;;;;;5034948;28;20383;-65
2021/10/29 08:47:35;;;;;;;6.23;5.50;;;19.30;89.50;;;;;;5034313;28;20202;-65
2021/10/29 08:50:02;;;;;;;6.17;5.57;;;19.00;87.60;;;;;;5031973;28;20396;-65
2021/10/29 08:52:28;;;;;;;5.70;5.20;;;18.50;89.20;;;;;;5034754;28;20434;-65
2021/10/29 08:54:54;;;;;;;4.77;4.27;;;18.20;90.90;;;;;;5034498;28;20411;-65
2021/10/29 08:57:21;;;;;;;7.67;5.80;;;18.20;90.50;;;;;;5034389;28;20189;-65
2021/10/29 08:59:50;;;;;;;5.43;4.90;;;18.20;90.40;;;;;;5034522;28;20409;-65
2021/10/29 09:02:23;;;;;;;5.33;4.83;;;18.50;91.10;;;;;;5034400;28;20395;-65
2021/10/29 09:05:09;;;;;;;6.00;5.33;;;18.80;90.30;;;;;;5034264;28;20447;-65
2021/10/29 09:32:33;;;;;;;7.30;5.73;;;20.50;87.10;;;;;;5033750;28;20503;-70
2021/10/29 09:35:15;;;;;;;6.63;6.03;;;20.80;85.60;;;;;;5033715;28;20410;-69
2021/10/29 09:38:00;;;;;;;5.30;4.70;;;20.80;85.10;;;;;;5033290;28;20410;-68
2021/10/29 09:40:29;;;;;;;5.87;5.33;;;20.90;84.00;;;;;;5033128;28;20477;-67
2021/10/29 09:43:00;;;;;;;7.50;6.80;;;21.10;84.10;;;;;;5033669;28;20381;-68
2021/10/29 09:45:28;;;;;;;6.87;5.77;;;21.30;82.80;;;;;;5033495;28;20783;-66
2021/10/29 09:48:15;;;;;;;6.93;6.30;;;21.30;83.80;;;;;;5033112;28;20851;-66
2021/10/29 09:50:50;;;;;;;6.37;5.77;;;21.20;84.10;;;;;;5033613;28;20412;-65
2021/10/29 09:56:17;;;;;;;6.53;5.93;;;20.50;83.90;;;;;;5033436;28;20395;-73
2021/10/29 09:58:48;;;;;;;6.30;5.67;;;20.40;85.40;;;;;;5033190;28;20920;-66
2021/10/29 10:01:14;;;;;;;7.50;5.80;;;20.10;86.20;;;;;;5033081;28;20409;-65
2021/10/29 10:03:42;;;;;;;7.20;6.10;;;20.00;87.80;;;;;;5033293;28;20516;-66
2021/10/29 10:06:09;;;;;;;7.23;6.53;;;19.80;87.70;;;;;;5033351;28;20379;-65
2021/10/29 10:08:38;;;;;;;8.73;6.20;;;19.80;87.80;;;;;;5033071;28;20817;-65
2021/10/29 10:11:04;;;;;;;6.30;5.70;;;19.80;87.80;;;;;;5033520;28;20394;-68
2021/10/29 10:13:32;;;;;;;5.97;5.37;;;20.00;87.70;;;;;;5032579;28;20510;-66
2021/10/29 10:16:01;;;;;;;8.10;6.77;;;20.00;87.70;;;;;;5032818;28;20805;-64
2021/10/29 10:18:29;;;;;;;8.80;5.93;;;20.20;88.10;;;;;;5033001;28;20465;-67
2021/10/29 10:20:58;;;;;;;7.03;5.70;;;20.20;87.70;;;;;;5032790;28;20768;-66
2021/10/29 10:23:32;;;;;;;6.40;5.77;;;20.10;88.00;;;;;;5031594;28;20450;-66
2021/10/29 10:43:07;;;;;;;8.13;7.13;;;19.60;90.80;;;;;;5030946;28;20397;-66
2021/10/29 10:48:02;;;;;;;6.30;5.70;;;19.20;90.80;;;;;;5030573;28;20440;-66
2021/10/29 10:50:36;;;;;;;7.13;6.47;;;19.20;91.10;;;;;;5034609;28;20387;-65
2021/10/29 10:53:08;;;;;;;6.80;6.10;;;19.20;91.30;;;;;;5037192;28;20780;-67
2021/10/29 11:10:12;;;;;;;7.20;5.83;;;17.70;93.10;;;;;;5036776;28;20397;-66
2021/10/29 11:12:41;;;;;;;7.80;6.43;;;17.20;93.80;;;;;;5036584;28;20502;-66
2021/10/29 11:15:17;;;;;;;9.60;5.90;;;16.90;94.30;;;;;;5036503;28;20905;-66
2021/10/29 11:17:46;;;;;;;6.90;5.67;;;16.80;94.60;;;;;;5042482;28;20452;-66
2021/10/29 11:23:36;;;;;;;8.13;6.57;;;16.50;95.40;;;;;;5036926;28;20924;-66
2021/10/29 11:26:25;;;;;;;7.30;5.97;;;16.40;96.20;;;;;;5037042;28;20385;-65
2021/10/29 11:28:54;;;;;;;5.77;5.20;;;16.30;96.50;;;;;;5036553;28;20907;-66
2021/10/29 11:31:34;;;;;;;6.70;6.00;;;16.20;97.10;;;;;;5036488;28;20411;-66
2021/10/29 11:34:04;;;;;;;6.13;4.87;;;16.20;96.80;;;;;;5036673;28;20443;-66
2021/10/29 11:36:36;;;;;;;6.67;5.97;;;16.30;96.30;;;;;;5036328;28;20433;-65
2021/10/29 11:39:10;;;;;;;6.03;5.40;;;16.20;96.60;;;;;;5036311;28;20408;-65
2021/10/29 11:41:38;;;;;;;7.93;6.37;;;16.20;96.60;;;;;;5035029;28;20434;-65
2021/10/29 11:44:11;;;;;;;7.23;6.47;;;16.30;96.60;;;;;;5035945;28;20397;-65
2021/10/29 11:46:37;;;;;;;9.13;7.63;;;16.30;96.60;;;;;;5035646;28;21148;-64
2021/10/29 11:49:08;;;;;;;7.57;6.80;;;16.20;96.80;;;;;;5036011;28;20492;-65
2021/10/29 11:51:35;;;;;;;6.03;5.43;;;16.20;96.80;;;;;;5035887;28;20456;-65
2021/10/29 11:54:13;;;;;;;6.40;5.80;;;16.20;96.60;;;;;;5035860;28;20462;-66
2021/10/29 11:57:07;;;;;;;6.57;5.10;;;16.30;96.70;;;;;;5035496;28;20486;-66
2021/10/29 12:07:37;;;;;;;7.20;5.60;;;16.60;96.70;;;;;;5035625;28;20513;-66
2021/10/29 12:10:10;;;;;;;8.90;6.83;;;16.50;96.80;;;;;;5035732;28;20409;-66
2021/10/29 12:12:42;;;;;;;8.20;5.10;;;16.50;97.30;;;;;;5035698;28;20524;-65
2021/10/29 12:15:15;;;;;;;5.80;5.20;;;16.70;99.90;;;;;;5034051;28;20388;-66
2021/10/29 12:20:22;;;;;;;7.60;5.90;;;16.50;96.50;;;;;;5035647;28;20389;-65
2021/10/29 12:22:54;;;;;;;6.10;5.50;;;16.50;96.50;;;;;;5035472;28;20460;-65
2021/10/29 12:25:30;;;;;;;6.07;4.77;;;16.50;96.70;;;;;;5035371;28;20400;-65
2021/10/29 12:28:01;;;;;;;5.83;5.33;;;16.50;97.00;;;;;;5034814;28;20442;-65
2021/10/29 12:38:42;;;;;;;5.43;4.93;;;16.50;95.60;;;;;;5034889;28;20453;-65
2021/10/29 13:03:22;;;;;;;3.93;3.53;;;16.80;93.20;;;;;;5034742;28;20927;-66
2021/10/29 13:05:56;;;;;;;3.60;3.23;;;16.80;92.70;;;;;;5034620;28;20384;-66
2021/10/29 13:08:23;;;;;;;3.30;3.00;;;16.90;92.90;;;;;;5034039;28;20445;-66
2021/10/29 13:10:54;;;;;;;3.73;3.40;;;16.90;92.20;;;;;;5033105;28;20441;-66
2021/10/29 13:13:25;;;;;;;3.23;2.93;;;16.90;91.50;;;;;;5034298;28;20523;-65
2021/10/29 13:15:56;;;;;;;3.20;3.00;;;16.90;91.60;;;;;;5034310;28;20422;-66
2021/10/29 13:18:26;;;;;;;4.73;2.60;;;16.90;92.00;;;;;;5033963;28;20759;-65
2021/10/29 13:26:18;;;;;;;3.13;2.93;;;17.00;92.50;;;;;;5034496;28;20382;-66
2021/10/29 13:28:57;;;;;;;2.80;2.60;;;17.00;91.60;;;;;;5034355;28;20444;-65
2021/10/29 13:36:55;;;;;;;2.50;2.30;;;16.90;92.10;;;;;;5033618;28;20376;-66
2021/10/29 13:50:44;;;;;;;3.33;3.00;;;17.00;92.70;;;;;;5033823;28;20456;-65
2021/10/29 13:53:24;;;;;;;2.87;2.67;;;17.00;92.10;;;;;;5033613;28;20436;-66
2021/10/29 13:56:01;;;;;;;3.07;2.77;;;17.00;92.40;;;;;;5033799;28;20780;-66
2021/10/29 13:58:47;;;;;;;4.17;3.77;;;17.00;92.30;;;;;;5015599;28;20546;-65
2021/10/29 14:01:26;;;;;;;3.73;3.43;;;17.00;92.70;;;;;;5033612;28;20405;-66
2021/10/29 14:16:15;;;;;;;3.00;2.77;;;17.00;92.60;;;;;;5033662;28;20376;-65
2021/10/29 14:33:49;;;;;;;2.90;2.70;;;16.80;91.10;;;;;;5033397;28;20389;-65
2021/10/29 14:36:17;;;;;;;3.20;2.77;;;16.80;91.20;;;;;;5033208;28;20479;-66
2021/10/29 14:39:31;;;;;;;2.90;2.60;;;16.70;90.90;;;;;;5032970;28;20797;-65
2021/10/29 14:41:43;;;;;;;2.63;2.43;;;16.70;91.00;;;;;;5025742;28;20402;-66
2021/10/29 14:44:20;;;;;;;1.77;1.67;;;16.60;91.10;;;;;;5033321;28;20492;-66
2021/10/29 14:46:58;;;;;;;3.23;2.17;;;16.50;91.30;;;;;;5032876;28;20433;-64
2021/10/29 15:29:42;;;;;;;3.77;3.47;;;15.50;93.40;;;;;;5032674;28;20398;-66
2021/10/29 15:45:25;;;;;;;4.43;3.87;;;14.90;95.30;;;;;;5005473;28;20423;-66
2021/10/29 15:50:32;;;;;;;5.23;4.40;;;14.60;96.00;;;;;;5035843;28;20412;-65
2021/10/29 15:52:57;;;;;;;3.60;3.30;;;14.50;96.30;;;;;;5036016;28;20580;-65
2021/10/29 15:55:36;;;;;;;4.27;3.80;;;14.40;96.50;;;;;;5035930;28;20469;-65
2021/10/29 15:58:53;;;;;;;4.07;3.70;;;14.20;96.50;;;;;;5035489;28;20335;-67
2021/10/29 16:17:21;;;;;;;3.43;3.13;;;13.40;96.60;;;;;;5035386;28;20417;-65
2021/10/29 16:19:46;;;;;;;3.37;2.33;;;13.40;97.00;;;;;;5035281;28;20734;-65
2021/10/29 16:22:20;;;;;;;3.70;3.27;;;13.30;97.50;;;;;;5035689;28;20399;-64
2021/10/29 16:24:57;;;;;;;6.03;3.67;;;13.20;98.00;;;;;;5035430;28;20676;-64
2021/10/29 16:27:24;;;;;;;7.73;4.00;;;13.20;98.90;;;;;;5034845;28;20418;-65
2021/10/29 16:29:51;;;;;;;3.60;3.30;;;13.00;99.40;;;;;;5035428;28;20434;-65
2021/10/29 16:32:38;;;;;;;3.70;3.40;;;13.00;99.90;;;;;;5035270;28;20437;-64
2021/10/29 16:35:04;;;;;;;5.27;3.97;;;12.80;99.90;;;;;;5035128;28;20901;-64
2021/10/29 16:37:30;;;;;;;5.15;4.20;;;12.70;99.90;;;;;;5034813;28;20779;-65
2021/10/29 16:39:56;;;;;;;4.33;3.73;;;12.60;99.90;;;;;;5035306;28;20178;-65
2021/10/29 16:42:21;;;;;;;5.33;3.67;;;12.50;99.90;;;;;;5035525;28;20175;-64
2021/10/29 16:44:47;;;;;;;6.23;3.40;;;12.40;99.90;;;;;;5035067;28;20186;-65
2021/10/29 16:47:13;;;;;;;3.93;3.53;;;12.40;99.90;;;;;;5034825;28;20179;-65
2021/10/29 16:49:38;;;;;;;5.13;4.13;;;12.20;99.90;;;;;;5034930;28;20193;-64
2021/10/29 16:52:04;;;;;;;3.40;3.10;;;12.20;99.90;;;;;;5035197;28;20428;-65
2021/10/29 16:54:30;;;;;;;4.23;3.83;;;12.10;99.90;;;;;;5033794;28;20210;-65
2021/10/29 16:56:56;;;;;;;3.43;3.13;;;12.00;99.90;;;;;;5033348;28;20435;-65
2021/10/29 16:59:21;;;;;;;5.40;3.80;;;11.90;99.90;;;;;;5034740;28;20203;-64
2021/10/29 17:01:49;;;;;;;5.50;3.40;;;11.80;99.90;;;;;;5035302;28;20174;-65
2021/10/29 17:04:15;;;;;;;3.55;3.25;;;11.70;99.90;;;;;;5035206;28;20231;-65
2021/10/29 17:06:41;;;;;;;3.85;3.50;;;11.70;99.90;;;;;;5037344;28;20222;-65
2021/10/29 17:09:07;;;;;;;3.87;2.80;;;11.60;99.90;;;;;;5038381;28;20198;-65
2021/10/29 17:11:33;;;;;;;9.27;3.95;;;11.50;99.90;;;;;;5038966;28;20245;-66
2021/10/29 17:14:00;;;;;;;6.20;5.27;;;11.50;99.90;;;;;;5039082;28;20240;-65
2021/10/29 17:16:26;;;;;;;3.70;3.40;;;11.50;99.90;;;;;;5036829;28;20589;-65
2021/10/29 17:18:51;;;;;;;4.23;3.80;;;11.40;99.90;;;;;;5019917;28;20201;-65
2021/10/29 17:21:17;;;;;;;4.27;3.23;;;11.50;99.90;;;;;;5035909;28;20195;-64
2021/10/29 17:23:43;;;;;;;4.57;3.80;;;11.40;99.90;;;;;;5036364;28;20268;-64
2021/10/29 17:26:09;;;;;;;6.23;4.20;;;11.40;99.90;;;;;;5039328;28;20418;-64
2021/10/29 17:28:35;;;;;;;4.73;3.17;;;11.40;99.90;;;;;;5039048;28;20701;-65
2021/10/29 17:31:01;;;;;;;4.15;3.63;;;11.40;99.90;;;;;;5035332;28;20170;-65
2021/10/29 17:33:26;;;;;;;6.60;4.60;;;11.30;99.90;;;;;;5034093;28;20681;-64
2021/10/29 17:35:52;;;;;;;7.00;5.33;;;11.30;99.90;;;;;;5034143;28;20741;-65
2021/10/29 17:38:18;;;;;;;4.50;4.10;;;11.10;99.90;;;;;;5033442;28;20673;-65
2021/10/29 17:40:44;;;;;;;4.80;4.40;;;11.00;99.90;;;;;;5034138;28;20255;-65
2021/10/29 17:43:09;;;;;;;6.37;4.90;;;10.80;99.90;;;;;;5033976;28;20178;-65
2021/10/29 17:45:35;;;;;;;5.13;4.10;;;10.70;99.90;;;;;;5034241;28;20534;-64
2021/10/29 17:48:01;;;;;;;4.83;4.13;;;10.60;99.90;;;;;;5033400;28;20218;-66